createdAt,value
2019-04-04T00:01:47.793Z,96183.52
2019-04-04T00:04:17.428Z,96188.51
2019-04-04T00:06:47.733Z,96177.16
2019-04-04T00:09:18.092Z,96167.04
2019-04-04T00:11:48.350Z,96176.09
2019-04-04T00:14:19.867Z,96171.92
2019-04-04T00:16:50.180Z,96168.03
2019-04-04T00:19:20.412Z,96168.52
2019-04-04T00:21:50.718Z,96163.15
2019-04-04T00:24:20.964Z,96163.88
2019-04-04T00:26:51.348Z,96159.61
2019-04-04T00:29:22.745Z,96158.75
2019-04-04T00:31:53.063Z,96154.72
2019-04-04T00:34:23.357Z,96169.86
2019-04-04T00:36:53.710Z,96166.93
2019-04-04T00:39:25.036Z,96165.24
2019-04-04T00:41:55.571Z,96159.87
2019-04-04T00:44:25.851Z,96155.72
2019-04-04T00:46:56.325Z,96159.26
2019-04-04T00:49:26.644Z,96153.76
2019-04-04T00:51:56.897Z,96153.89
2019-04-04T00:54:27.262Z,96143.64
2019-04-04T00:56:57.577Z,96139.23
2019-04-04T00:59:27.909Z,96130.22
2019-04-04T01:01:58.281Z,96133.77
2019-04-04T01:04:30.768Z,96132.29
2019-04-04T01:07:05.045Z,96130.56
2019-04-04T01:09:38.269Z,96134.11
2019-04-04T01:12:08.653Z,96133.25
2019-04-04T01:14:38.956Z,96136.07
2019-04-04T01:17:09.205Z,96131.56
2019-04-04T01:19:39.568Z,96127.88
2019-04-04T01:22:09.821Z,96123.52
2019-04-04T01:24:40.214Z,96124.00
2019-04-04T01:27:10.512Z,96120.45
2019-04-04T01:29:41.453Z,96124.00
2019-04-04T01:32:11.991Z,96123.65
2019-04-04T01:34:42.382Z,96123.65
2019-04-04T01:37:12.678Z,96124.99
2019-04-04T01:39:43.014Z,96124.00
2019-04-04T01:42:13.338Z,96122.66
2019-04-04T01:44:43.640Z,96123.03
2019-04-04T01:47:16.649Z,96122.66
2019-04-04T01:49:45.953Z,96104.35
2019-04-04T01:52:18.634Z,96124.48
2019-04-04T01:54:48.984Z,96107.03
2019-04-04T01:57:19.281Z,96099.84
2019-04-04T01:59:49.573Z,96113.50
2019-04-04T02:02:19.853Z,96101.91
2019-04-04T02:04:50.064Z,96099.23
2019-04-04T02:07:20.289Z,96099.71
2019-04-04T02:09:50.610Z,96103.12
2019-04-04T02:12:20.920Z,96109.09
2019-04-04T02:14:51.314Z,96100.33
2019-04-04T02:17:22.282Z,96091.07
2019-04-04T02:19:55.579Z,96092.69
2019-04-04T02:22:25.124Z,96097.16
2019-04-04T02:24:55.490Z,96081.92
2019-04-04T02:27:25.749Z,96093.86
2019-04-04T02:29:57.050Z,96082.89
2019-04-04T02:32:27.810Z,96076.42
2019-04-04T02:34:58.055Z,96085.47
2019-04-04T02:37:29.523Z,96076.17
2019-04-04T02:39:59.767Z,96067.16
2019-04-04T02:42:30.026Z,96064.00
2019-04-04T02:45:00.419Z,96071.29
2019-04-04T02:47:31.824Z,96066.06
2019-04-04T02:50:05.578Z,96065.20
2019-04-04T02:52:35.791Z,96062.14
2019-04-04T02:55:06.445Z,96059.22
2019-04-04T02:57:41.167Z,96062.86
2019-04-04T03:00:08.565Z,96058.36
2019-04-04T03:02:39.227Z,96053.75
2019-04-04T03:05:09.476Z,96060.94
2019-04-04T03:07:39.764Z,96059.59
2019-04-04T03:10:15.311Z,96056.56
2019-04-04T03:12:43.035Z,96059.97
2019-04-04T03:15:13.318Z,96045.70
2019-04-04T03:17:44.639Z,96044.70
2019-04-04T03:20:17.303Z,96046.94
2019-04-04T03:22:46.917Z,96051.92
2019-04-04T03:25:17.162Z,96044.50
2019-04-04T03:27:47.411Z,96058.32
2019-04-04T03:30:17.858Z,96041.61
2019-04-04T03:32:54.186Z,96042.57
2019-04-04T03:35:25.961Z,96051.00
2019-04-04T03:37:52.187Z,96041.09
2019-04-04T03:40:25.717Z,96038.92
2019-04-04T03:42:55.645Z,96036.34
2019-04-04T03:45:27.350Z,96033.18
2019-04-04T03:47:59.466Z,96032.70
2019-04-04T03:50:30.702Z,96039.64
2019-04-04T03:53:06.279Z,96042.57
2019-04-04T03:55:36.652Z,96041.09
2019-04-04T03:58:09.974Z,96042.47
2019-04-04T04:00:40.741Z,96037.48
2019-04-04T04:03:11.103Z,96034.66
2019-04-04T04:05:41.384Z,96021.11
2019-04-04T04:08:11.624Z,96028.91
2019-04-04T04:10:42.932Z,96031.49
2019-04-04T04:13:16.070Z,96032.32
2019-04-04T04:15:46.268Z,96028.43
2019-04-04T04:18:20.224Z,96035.14
2019-04-04T04:20:50.230Z,96042.70
2019-04-04T04:23:23.211Z,96037.48
2019-04-04T04:25:52.492Z,96030.53
2019-04-04T04:28:22.826Z,96036.23
2019-04-04T04:30:53.091Z,96029.91
2019-04-04T04:33:24.199Z,96033.08
2019-04-04T04:35:54.800Z,96032.84
2019-04-04T04:38:26.886Z,96024.17
2019-04-04T04:40:57.142Z,96031.02
2019-04-04T04:43:32.403Z,96024.69
2019-04-04T04:45:59.422Z,96026.02
2019-04-04T04:48:31.715Z,96026.84
2019-04-04T04:51:03.280Z,96024.55
2019-04-04T04:53:33.518Z,96024.69
2019-04-04T04:56:03.821Z,96024.17
2019-04-04T04:58:34.016Z,96022.72
2019-04-04T05:01:04.330Z,96029.30
2019-04-04T05:03:34.592Z,96036.86
2019-04-04T05:06:04.829Z,96034.38
2019-04-04T05:08:35.090Z,96020.25
2019-04-04T05:11:05.400Z,96021.73
2019-04-04T05:13:35.686Z,96027.36
2019-04-04T05:16:08.894Z,96030.05
2019-04-04T05:18:38.114Z,96036.23
2019-04-04T05:21:08.321Z,96046.14
2019-04-04T05:23:38.618Z,96032.45
2019-04-04T05:26:09.722Z,96033.31
2019-04-04T05:28:43.324Z,96030.49
2019-04-04T05:31:13.528Z,96035.52
2019-04-04T05:33:44.056Z,96039.41
2019-04-04T05:36:14.417Z,96034.04
2019-04-04T05:38:47.283Z,96026.84
2019-04-04T05:41:17.370Z,96018.91
2019-04-04T05:43:47.747Z,96015.84
2019-04-04T05:46:19.036Z,96017.56
2019-04-04T05:48:49.953Z,96010.95
2019-04-04T05:51:20.155Z,96007.31
2019-04-04T05:53:50.387Z,96009.72
2019-04-04T05:56:20.606Z,96007.80
2019-04-04T05:58:52.798Z,96004.48
2019-04-04T06:01:23.195Z,96011.68
2019-04-04T06:03:55.309Z,96013.12
2019-04-04T06:06:25.471Z,96010.58
2019-04-04T06:08:55.780Z,96013.12
2019-04-04T06:11:27.381Z,96012.16
2019-04-04T06:13:59.041Z,96011.91
2019-04-04T06:16:29.685Z,96008.52
2019-04-04T06:18:59.965Z,96004.97
2019-04-04T06:21:30.283Z,96002.52
2019-04-04T06:24:00.589Z,95993.86
2019-04-04T06:26:30.928Z,96001.42
2019-04-04T06:29:01.231Z,96008.13
2019-04-04T06:31:31.562Z,96009.81
2019-04-04T06:34:01.861Z,96000.80
2019-04-04T06:36:32.182Z,96005.69
2019-04-04T06:39:02.441Z,96009.33
2019-04-04T06:41:34.296Z,96008.23
2019-04-04T06:44:04.675Z,96007.85
2019-04-04T06:46:35.003Z,96005.78
2019-04-04T06:49:05.432Z,96003.72
2019-04-04T06:51:36.049Z,95997.84
2019-04-04T06:54:06.362Z,95988.82
2019-04-04T06:56:36.796Z,95980.39
2019-04-04T06:59:07.074Z,95979.77
2019-04-04T07:01:37.322Z,95987.72
2019-04-04T07:04:07.620Z,95985.52
2019-04-04T07:06:37.912Z,95990.02
2019-04-04T07:09:08.708Z,95991.60
2019-04-04T07:11:39.093Z,95985.23
2019-04-04T07:14:09.276Z,95984.52
2019-04-04T07:16:39.618Z,95977.46
2019-04-04T07:19:09.939Z,95971.09
2019-04-04T07:21:40.266Z,95960.36
2019-04-04T07:24:10.818Z,95956.57
2019-04-04T07:26:41.135Z,95951.83
2019-04-04T07:29:11.417Z,95945.12
2019-04-04T07:31:41.756Z,95949.62
2019-04-04T07:34:13.733Z,95953.41
2019-04-04T07:36:45.731Z,95957.91
2019-04-04T07:39:18.349Z,95957.91
2019-04-04T07:41:48.547Z,95958.77
2019-04-04T07:44:23.007Z,95955.23
2019-04-04T07:46:52.943Z,95965.96
2019-04-04T07:49:23.931Z,95964.48
2019-04-04T07:51:54.391Z,95957.77
2019-04-04T07:54:24.805Z,95961.80
2019-04-04T07:56:55.179Z,95963.14
2019-04-04T07:59:25.443Z,95965.34
2019-04-04T08:01:55.740Z,95962.31
2019-04-04T08:04:26.052Z,95964.14
2019-04-04T08:06:56.618Z,95964.14
2019-04-04T08:09:26.912Z,95963.86
2019-04-04T08:11:57.235Z,95969.59
2019-04-04T08:14:27.883Z,95965.58
2019-04-04T08:16:58.145Z,95953.50
2019-04-04T08:19:28.464Z,95947.03
2019-04-04T08:21:58.836Z,95946.55
2019-04-04T08:24:29.445Z,95953.27
2019-04-04T08:26:59.686Z,95951.06
2019-04-04T08:29:29.989Z,95953.75
2019-04-04T08:32:00.307Z,95948.38
2019-04-04T08:34:30.924Z,95944.98
2019-04-04T08:37:01.462Z,95943.64
2019-04-04T08:39:31.800Z,95940.84
2019-04-04T08:42:02.187Z,95941.91
2019-04-04T08:44:32.446Z,95941.05
2019-04-04T08:47:02.821Z,95944.73
2019-04-04T08:49:33.102Z,95941.33
2019-04-04T08:52:15.852Z,95938.64
2019-04-04T08:54:35.433Z,95932.41
2019-04-04T08:57:05.749Z,95929.73
2019-04-04T08:59:36.044Z,95935.48
2019-04-04T09:02:06.333Z,95921.20
2019-04-04T09:04:38.427Z,95914.97
2019-04-04T09:07:09.908Z,95914.34
2019-04-04T09:09:40.281Z,95908.35
2019-04-04T09:12:10.676Z,95905.95
2019-04-04T09:14:41.376Z,95907.41
2019-04-04T09:17:11.759Z,95900.35
2019-04-04T09:19:43.035Z,95897.81
2019-04-04T09:22:14.318Z,95892.16
2019-04-04T09:24:44.613Z,95893.50
2019-04-04T09:27:16.538Z,95891.30
2019-04-04T09:29:46.889Z,95877.88
2019-04-04T09:32:18.187Z,95877.05
2019-04-04T09:34:48.449Z,95882.28
2019-04-04T09:37:18.809Z,95879.60
2019-04-04T09:39:49.030Z,95875.20
2019-04-04T09:42:20.329Z,95878.26
2019-04-04T09:44:50.633Z,95879.23
2019-04-04T09:47:20.827Z,95872.66
2019-04-04T09:49:51.133Z,95876.05
2019-04-04T09:52:21.428Z,95872.41
2019-04-04T09:54:51.761Z,95871.06
2019-04-04T09:57:22.018Z,95871.17
2019-04-04T09:59:52.642Z,95870.06
2019-04-04T10:02:22.905Z,95862.64
2019-04-04T10:04:52.195Z,95859.09
2019-04-04T10:07:21.434Z,95855.70
2019-04-04T10:09:49.035Z,95856.41
2019-04-04T10:12:16.653Z,95846.53
2019-04-04T10:14:44.529Z,95854.11
2019-04-04T10:17:14.846Z,95845.20
2019-04-04T10:19:45.164Z,95847.39
2019-04-04T10:22:15.474Z,95835.95
2019-04-04T10:24:48.092Z,95846.30
2019-04-04T10:27:18.389Z,95841.80
2019-04-04T10:29:48.680Z,95850.70
2019-04-04T10:32:18.963Z,95846.67
2019-04-04T10:34:49.307Z,95838.48
2019-04-04T10:37:19.578Z,95840.94
2019-04-04T10:39:52.469Z,95840.45
2019-04-04T10:42:22.720Z,95831.55
2019-04-04T10:44:52.981Z,95823.73
2019-04-04T10:47:23.250Z,95828.86
2019-04-04T10:49:53.581Z,95828.52
2019-04-04T10:52:23.844Z,95824.98
2019-04-04T10:54:54.170Z,95825.46
2019-04-04T10:57:24.451Z,95825.27
2019-04-04T10:59:54.931Z,95820.38
2019-04-04T11:02:25.254Z,95823.92
2019-04-04T11:04:55.532Z,95821.73
2019-04-04T11:07:25.854Z,95822.84
2019-04-04T11:09:57.114Z,95832.72
2019-04-04T11:12:27.438Z,95828.58
2019-04-04T11:14:57.721Z,95832.37
2019-04-04T11:17:28.652Z,95840.91
2019-04-04T11:19:59.006Z,95833.09
2019-04-04T11:22:29.198Z,95828.83
2019-04-04T11:24:59.518Z,95832.63
2019-04-04T11:27:29.790Z,95829.60
2019-04-04T11:30:00.178Z,95831.28
2019-04-04T11:32:30.469Z,95830.03
2019-04-04T11:35:00.794Z,95828.83
2019-04-04T11:37:31.109Z,95820.92
2019-04-04T11:40:01.440Z,95823.38
2019-04-04T11:42:31.798Z,95822.27
2019-04-04T11:45:02.037Z,95822.98
2019-04-04T11:47:33.395Z,95818.24
2019-04-04T11:50:03.730Z,95811.16
2019-04-04T11:52:33.998Z,95796.63
2019-04-04T11:55:05.495Z,95802.63
2019-04-04T11:57:36.441Z,95797.97
2019-04-04T12:00:07.188Z,95789.36
2019-04-04T12:02:37.474Z,95793.23
2019-04-04T12:05:08.009Z,95785.67
2019-04-04T12:07:38.730Z,95787.39
2019-04-04T12:10:09.085Z,95789.98
2019-04-04T12:12:39.545Z,95782.08
2019-04-04T12:15:10.105Z,95781.70
2019-04-04T12:17:40.424Z,95779.02
2019-04-04T12:20:10.713Z,95772.80
2019-04-04T12:22:41.325Z,95765.13
2019-04-04T12:25:13.314Z,95765.90
2019-04-04T12:27:43.708Z,95764.55
2019-04-04T12:30:14.406Z,95757.70
2019-04-04T12:32:44.744Z,95758.96
2019-04-04T12:35:15.079Z,95757.48
2019-04-04T12:37:45.683Z,95759.93
2019-04-04T12:40:20.687Z,95754.23
2019-04-04T12:42:48.316Z,95761.27
2019-04-04T12:45:18.680Z,95751.06
2019-04-04T12:47:48.990Z,95746.89
2019-04-04T12:50:19.498Z,95748.72
2019-04-04T12:52:49.845Z,95746.66
2019-04-04T12:55:20.269Z,95742.07
2019-04-04T12:57:52.509Z,95747.66
2019-04-04T13:00:22.907Z,95742.92
2019-04-04T13:02:53.332Z,95738.53
2019-04-04T13:05:23.679Z,95739.53
2019-04-04T13:07:54.180Z,95745.72
2019-04-04T13:10:33.040Z,95738.19
2019-04-04T13:12:56.578Z,95735.63
2019-04-04T13:15:28.883Z,95739.16
2019-04-04T13:17:59.521Z,95738.45
2019-04-04T13:20:32.209Z,95735.91
2019-04-04T13:23:02.886Z,95735.19
2019-04-04T13:25:33.176Z,95724.86
2019-04-04T13:28:03.606Z,95718.68
2019-04-04T13:30:34.115Z,95719.64
2019-04-04T13:33:04.485Z,95721.36
2019-04-04T13:35:37.659Z,95714.74
2019-04-04T13:38:07.037Z,95716.19
2019-04-04T13:40:45.452Z,95708.77
2019-04-04T13:43:09.287Z,95706.23
2019-04-04T13:45:39.571Z,95707.95
2019-04-04T13:48:12.429Z,95709.63
2019-04-04T13:50:41.825Z,95711.83
2019-04-04T13:53:12.133Z,95715.38
2019-04-04T13:55:42.649Z,95706.95
2019-04-04T13:58:13.191Z,95708.77
2019-04-04T14:00:43.579Z,95708.14
2019-04-04T14:03:13.870Z,95700.25
2019-04-04T14:05:44.153Z,95691.72
2019-04-04T14:08:14.639Z,95687.84
2019-04-04T14:10:57.261Z,95685.88
2019-04-04T14:13:17.674Z,95687.69
2019-04-04T14:15:47.971Z,95686.58
2019-04-04T14:18:38.206Z,95680.84
2019-04-04T14:21:03.734Z,95669.41
2019-04-04T14:23:29.427Z,95677.45
2019-04-04T14:26:00.564Z,95669.55
2019-04-04T14:28:31.189Z,95672.72
2019-04-04T14:31:01.589Z,95678.30
2019-04-04T14:33:31.959Z,95669.63
2019-04-04T14:36:02.536Z,95662.44
2019-04-04T14:38:32.904Z,95669.15
2019-04-04T14:41:11.275Z,95672.31
2019-04-04T14:43:35.524Z,95670.60
2019-04-04T14:46:05.895Z,95675.62
2019-04-04T14:48:36.241Z,95675.77
2019-04-04T14:51:06.630Z,95661.36
2019-04-04T14:53:36.908Z,95663.33
2019-04-04T14:56:07.181Z,95670.52
2019-04-04T14:58:37.527Z,95666.50
2019-04-04T15:01:07.858Z,95663.56
2019-04-04T15:03:38.190Z,95667.58
2019-04-04T15:06:09.500Z,95674.52
2019-04-04T15:08:40.190Z,95669.48
2019-04-04T15:11:23.093Z,95675.34
2019-04-04T15:13:42.461Z,95671.83
2019-04-04T15:16:16.792Z,95673.17
2019-04-04T15:18:48.164Z,95669.63
2019-04-04T15:21:18.364Z,95675.85
2019-04-04T15:33:50.581Z,95666.02
2019-04-04T15:36:21.644Z,95661.28
2019-04-04T15:38:53.534Z,95654.69
2019-04-04T15:41:35.929Z,95659.34
2019-04-04T15:43:56.023Z,95654.83
2019-04-04T15:46:26.483Z,95661.66
2019-04-04T15:48:56.839Z,95660.02
2019-04-04T15:51:27.221Z,95657.82
2019-04-04T15:53:57.600Z,95663.90
2019-04-04T15:56:30.957Z,95662.22
2019-04-04T15:59:01.456Z,95664.90
2019-04-04T16:01:31.844Z,95664.41
2019-04-04T16:04:02.241Z,95668.55
2019-04-04T16:06:32.627Z,95673.28
2019-04-04T16:09:04.035Z,95674.14
2019-04-04T16:11:34.448Z,95672.46
2019-04-04T16:14:04.742Z,95665.47
2019-04-04T16:16:36.437Z,95665.13
2019-04-04T16:19:06.972Z,95665.61
2019-04-04T16:21:37.379Z,95673.51
2019-04-04T16:24:08.201Z,95666.95
2019-04-04T16:26:38.571Z,95665.95
2019-04-04T16:29:08.968Z,95671.94
2019-04-04T16:31:39.288Z,95674.00
2019-04-04T16:34:10.661Z,95670.48
2019-04-04T16:36:41.034Z,95667.29
2019-04-04T16:39:11.877Z,95666.47
2019-04-04T16:41:42.226Z,95672.66
2019-04-04T16:44:12.558Z,95670.34
2019-04-04T16:46:42.882Z,95666.80
2019-04-04T16:49:13.159Z,95665.95
2019-04-04T16:51:43.544Z,95664.98
2019-04-04T16:54:14.854Z,95654.73
2019-04-04T16:56:46.405Z,95657.42
2019-04-04T16:59:16.809Z,95650.56
2019-04-04T17:01:47.192Z,95645.84
2019-04-04T17:04:17.518Z,95648.89
2019-04-04T17:06:47.909Z,95651.20
2019-04-04T17:09:18.275Z,95656.94
2019-04-04T17:11:49.758Z,95663.41
2019-04-04T17:14:20.076Z,95662.07
2019-04-04T17:16:50.403Z,95656.70
2019-04-04T17:19:25.195Z,95660.25
2019-04-04T17:21:55.576Z,95670.60
2019-04-04T17:24:27.595Z,95663.41
2019-04-04T17:26:57.853Z,95665.13
2019-04-04T17:29:28.121Z,95674.00
2019-04-04T17:32:02.977Z,95674.52
2019-04-04T17:34:33.385Z,95679.87
2019-04-04T17:37:03.874Z,95677.53
2019-04-04T17:39:34.751Z,95677.53
2019-04-04T17:42:05.731Z,95676.19
2019-04-04T17:44:36.573Z,95681.41
2019-04-04T17:47:06.915Z,95684.58
2019-04-04T17:49:37.589Z,95690.66
2019-04-04T17:52:07.957Z,95688.59
2019-04-04T17:54:39.595Z,95696.53
2019-04-04T17:57:10.901Z,95709.09
2019-04-04T17:59:41.566Z,95706.61
2019-04-04T18:02:11.875Z,95707.94
2019-04-04T18:04:48.553Z,95734.16
2019-04-04T18:07:16.521Z,95750.86
2019-04-04T18:09:50.629Z,95782.75
2019-04-04T18:12:21.920Z,95799.91
2019-04-04T18:14:56.504Z,95790.66
2019-04-04T18:17:26.417Z,95793.72
2019-04-04T18:19:56.807Z,95799.80
2019-04-04T18:22:28.654Z,95788.35
2019-04-04T18:25:00.345Z,95782.47
2019-04-04T18:27:30.651Z,95753.97
2019-04-04T18:30:01.053Z,95735.19
2019-04-04T18:32:34.258Z,95738.45
2019-04-04T18:35:04.874Z,95747.12
2019-04-04T18:37:35.541Z,95744.58
2019-04-04T18:40:07.861Z,95754.54
2019-04-04T18:42:38.297Z,95751.86
2019-04-04T18:45:08.649Z,95759.05
2019-04-04T18:47:39.036Z,95761.44
2019-04-04T18:50:09.350Z,95770.20
2019-04-04T18:52:39.662Z,95770.06
2019-04-04T18:55:19.542Z,95775.42
2019-04-04T18:57:42.276Z,95781.98
2019-04-04T19:00:12.556Z,95782.22
2019-04-04T19:02:43.071Z,95777.34
2019-04-04T19:05:13.385Z,95779.53
2019-04-04T19:07:43.726Z,95780.88
2019-04-04T19:10:14.094Z,95776.37
2019-04-04T19:12:44.421Z,95784.41
2019-04-04T19:15:14.863Z,95786.81
2019-04-04T19:17:45.137Z,95792.66
2019-04-04T19:20:15.494Z,95796.20
2019-04-04T19:22:47.240Z,95797.40
2019-04-04T19:25:19.269Z,95799.26
2019-04-04T19:27:49.709Z,95795.43
2019-04-04T19:30:20.492Z,95795.95
2019-04-04T19:32:51.102Z,95805.19
2019-04-04T19:35:21.680Z,95799.34
2019-04-04T19:38:00.089Z,95799.83
2019-04-04T19:40:24.330Z,95801.17
2019-04-04T19:42:54.786Z,95802.14
2019-04-04T19:45:25.350Z,95806.88
2019-04-04T19:47:55.669Z,95810.27
2019-04-04T19:50:26.066Z,95812.95
2019-04-04T19:52:56.404Z,95806.14
2019-04-04T19:55:26.756Z,95812.33
2019-04-04T19:57:57.364Z,95813.67
2019-04-04T20:00:27.665Z,95819.89
2019-04-04T20:02:58.026Z,95825.63
2019-04-04T20:05:29.560Z,95821.95
2019-04-04T20:08:00.056Z,95814.76
2019-04-04T20:10:31.476Z,95821.09
2019-04-04T20:13:01.836Z,95820.36
2019-04-04T20:15:32.164Z,95825.20
2019-04-04T20:18:02.484Z,95828.60
2019-04-04T20:20:32.798Z,95832.52
2019-04-04T20:23:04.681Z,95840.91
2019-04-04T20:25:34.982Z,95833.23
2019-04-04T20:28:05.317Z,95829.55
2019-04-04T20:30:37.194Z,95833.31
2019-04-04T20:33:07.753Z,95836.83
2019-04-04T20:35:38.042Z,95833.80
2019-04-04T20:38:08.460Z,95831.98
2019-04-04T20:40:38.872Z,95836.34
2019-04-04T20:43:09.233Z,95835.00
2019-04-04T20:45:40.138Z,95838.88
2019-04-04T20:48:10.489Z,95835.86
2019-04-04T20:50:43.093Z,95836.72
2019-04-04T20:53:13.418Z,95840.37
2019-04-04T20:55:43.760Z,95834.86
2019-04-04T20:58:14.092Z,95837.20
2019-04-04T21:00:44.374Z,95839.40
2019-04-04T21:03:14.697Z,95842.42
2019-04-04T21:05:45.024Z,95845.97
2019-04-04T21:08:15.530Z,95844.88
2019-04-04T21:10:45.864Z,95849.62
2019-04-04T21:13:16.223Z,95838.39
2019-04-04T21:15:46.510Z,95839.59
2019-04-04T21:18:16.762Z,95838.77
2019-04-04T21:20:48.701Z,95848.02
2019-04-04T21:23:20.266Z,95844.85
2019-04-04T21:25:50.599Z,95847.65
2019-04-04T21:28:20.981Z,95850.33
2019-04-04T21:30:51.321Z,95850.84
2019-04-04T21:33:21.699Z,95853.88
2019-04-04T21:35:52.200Z,95853.88
2019-04-04T21:38:22.491Z,95854.36
2019-04-04T21:40:52.829Z,95852.67
2019-04-04T21:43:23.098Z,95855.84
2019-04-04T21:45:53.458Z,95854.98
2019-04-04T21:48:23.989Z,95851.81
2019-04-04T21:50:54.289Z,95852.81
2019-04-04T21:53:24.721Z,95854.98
2019-04-04T21:56:09.397Z,95859.86
2019-04-04T21:58:41.466Z,95859.72
2019-04-04T22:01:20.698Z,95866.09
2019-04-04T22:03:52.630Z,95851.48
2019-04-04T22:06:22.910Z,95851.48
2019-04-04T22:09:04.754Z,95856.33
2019-04-04T22:11:36.843Z,95854.98
2019-04-04T22:14:07.755Z,95854.64
2019-04-04T22:16:39.251Z,95847.56
2019-04-04T22:19:09.495Z,95848.91
2019-04-04T22:21:39.801Z,95846.73
2019-04-04T22:24:10.104Z,95849.76
2019-04-04T22:26:40.428Z,95859.16
2019-04-04T22:29:11.800Z,95854.89
2019-04-04T22:31:42.127Z,95853.55
2019-04-04T22:34:12.376Z,95848.19
2019-04-04T22:36:42.881Z,95843.82
2019-04-04T22:39:13.063Z,95839.94
2019-04-04T22:41:43.398Z,95838.70
2019-04-04T22:44:13.654Z,95842.39
2019-04-04T22:46:44.290Z,95840.34
2019-04-04T22:49:14.572Z,95838.37
2019-04-04T22:51:44.988Z,95842.39
2019-04-04T22:54:15.239Z,95840.56
2019-04-04T22:56:45.569Z,95847.27
2019-04-04T22:59:15.891Z,95841.67
2019-04-04T23:01:46.236Z,95839.96
2019-04-04T23:04:16.523Z,95841.53
2019-04-04T23:06:49.489Z,95833.63
2019-04-04T23:09:19.755Z,95828.75
2019-04-04T23:11:50.093Z,95831.42
2019-04-04T23:14:20.369Z,95832.43
2019-04-04T23:16:50.705Z,95830.71
2019-04-04T23:19:21.013Z,95838.28
2019-04-04T23:21:51.283Z,95833.88
2019-04-04T23:24:21.671Z,95832.20
2019-04-04T23:26:52.006Z,95822.32
2019-04-04T23:29:22.341Z,95825.12
2019-04-04T23:31:52.636Z,95823.44
2019-04-04T23:34:22.895Z,95831.34
2019-04-04T23:36:54.055Z,95823.92
2019-04-04T23:39:24.239Z,95818.07
2019-04-04T23:41:54.513Z,95822.44
2019-04-04T23:44:24.888Z,95822.58
2019-04-04T23:46:55.189Z,95813.19
2019-04-04T23:49:25.643Z,95817.21
2019-04-04T23:51:55.911Z,95816.98
2019-04-04T23:54:26.245Z,95814.30
2019-04-04T23:56:56.459Z,95807.97
2019-04-04T23:59:28.406Z,95813.81
